sensor_id;sensor_type;location;lat;lon;timestamp;P1;durP1;ratioP1;P2;durP2;ratioP2
17524;SDS011;40431;52.198;9.902;2022-07-05T00:00:06;2.17;;;1.40;;
17524;SDS011;40431;52.198;9.902;2022-07-05T00:02:36;3.97;;;1.60;;
17524;SDS011;40431;52.198;9.902;2022-07-05T00:05:04;2.80;;;1.57;;
17524;SDS011;40431;52.198;9.902;2022-07-05T00:07:32;1.37;;;1.27;;
17524;SDS011;40431;52.198;9.902;2022-07-05T00:10:00;3.43;;;1.50;;
17524;SDS011;40431;52.198;9.902;2022-07-05T00:12:30;3.03;;;1.60;;
17524;SDS011;40431;52.198;9.902;2022-07-05T00:15:10;3.73;;;1.30;;
17524;SDS011;40431;52.198;9.902;2022-07-05T00:17:37;2.33;;;1.43;;
17524;SDS011;40431;52.198;9.902;2022-07-05T00:20:05;2.93;;;1.53;;
17524;SDS011;40431;52.198;9.902;2022-07-05T00:22:34;2.40;;;1.83;;
17524;SDS011;40431;52.198;9.902;2022-07-05T00:25:01;3.40;;;1.70;;
17524;SDS011;40431;52.198;9.902;2022-07-05T00:27:29;5.83;;;1.93;;
17524;SDS011;40431;52.198;9.902;2022-07-05T00:29:57;3.53;;;1.70;;
17524;SDS011;40431;52.198;9.902;2022-07-05T00:32:27;1.97;;;1.50;;
17524;SDS011;40431;52.198;9.902;2022-07-05T00:34:55;2.50;;;1.57;;
17524;SDS011;40431;52.198;9.902;2022-07-05T00:37:22;3.53;;;1.50;;
17524;SDS011;40431;52.198;9.902;2022-07-05T00:39:51;2.13;;;1.50;;
17524;SDS011;40431;52.198;9.902;2022-07-05T00:42:19;1.50;;;1.40;;
17524;SDS011;40431;52.198;9.902;2022-07-05T00:44:47;2.73;;;1.47;;
17524;SDS011;40431;52.198;9.902;2022-07-05T00:47:16;2.00;;;1.47;;
17524;SDS011;40431;52.198;9.902;2022-07-05T00:49:46;2.77;;;1.83;;
17524;SDS011;40431;52.198;9.902;2022-07-05T00:52:15;2.27;;;1.50;;
17524;SDS011;40431;52.198;9.902;2022-07-05T00:54:44;3.73;;;1.90;;
17524;SDS011;40431;52.198;9.902;2022-07-05T00:57:16;4.47;;;1.97;;
17524;SDS011;40431;52.198;9.902;2022-07-05T00:59:49;2.13;;;1.60;;
17524;SDS011;40431;52.198;9.902;2022-07-05T01:02:50;3.30;;;1.70;;
17524;SDS011;40431;52.198;9.902;2022-07-05T01:05:21;2.33;;;1.50;;
17524;SDS011;40431;52.198;9.902;2022-07-05T01:07:52;2.80;;;1.70;;
17524;SDS011;40431;52.198;9.902;2022-07-05T01:10:20;1.93;;;1.57;;
17524;SDS011;40431;52.198;9.902;2022-07-05T01:12:48;3.40;;;1.63;;
17524;SDS011;40431;52.198;9.902;2022-07-05T01:15:16;2.63;;;1.50;;
17524;SDS011;40431;52.198;9.902;2022-07-05T01:17:47;4.63;;;1.60;;
17524;SDS011;40431;52.198;9.902;2022-07-05T01:20:15;2.77;;;1.63;;
17524;SDS011;40431;52.198;9.902;2022-07-05T01:22:54;2.60;;;1.50;;
17524;SDS011;40431;52.198;9.902;2022-07-05T01:25:22;1.60;;;1.50;;
17524;SDS011;40431;52.198;9.902;2022-07-05T01:27:51;2.90;;;1.50;;
17524;SDS011;40431;52.198;9.902;2022-07-05T01:30:19;5.20;;;1.70;;
17524;SDS011;40431;52.198;9.902;2022-07-05T01:32:48;2.63;;;1.53;;
17524;SDS011;40431;52.198;9.902;2022-07-05T01:35:16;2.07;;;1.70;;
17524;SDS011;40431;52.198;9.902;2022-07-05T01:37:48;2.50;;;1.73;;
17524;SDS011;40431;52.198;9.902;2022-07-05T01:40:19;2.13;;;1.80;;
17524;SDS011;40431;52.198;9.902;2022-07-05T01:42:47;3.27;;;1.70;;
17524;SDS011;40431;52.198;9.902;2022-07-05T01:45:15;3.90;;;1.83;;
17524;SDS011;40431;52.198;9.902;2022-07-05T01:48:04;2.90;;;1.70;;
17524;SDS011;40431;52.198;9.902;2022-07-05T01:50:33;2.57;;;1.30;;
17524;SDS011;40431;52.198;9.902;2022-07-05T01:53:04;3.07;;;1.77;;
17524;SDS011;40431;52.198;9.902;2022-07-05T01:55:37;2.80;;;1.63;;
17524;SDS011;40431;52.198;9.902;2022-07-05T01:58:06;3.07;;;1.77;;
17524;SDS011;40431;52.198;9.902;2022-07-05T02:00:41;3.10;;;2.00;;
17524;SDS011;40431;52.198;9.902;2022-07-05T02:03:13;2.50;;;1.90;;
17524;SDS011;40431;52.198;9.902;2022-07-05T02:05:42;3.03;;;2.17;;
17524;SDS011;40431;52.198;9.902;2022-07-05T02:08:11;1.60;;;1.50;;
17524;SDS011;40431;52.198;9.902;2022-07-05T02:10:42;4.53;;;1.80;;
17524;SDS011;40431;52.198;9.902;2022-07-05T02:13:11;4.30;;;1.73;;
17524;SDS011;40431;52.198;9.902;2022-07-05T02:15:40;1.90;;;1.60;;
17524;SDS011;40431;52.198;9.902;2022-07-05T02:18:17;3.70;;;1.80;;
17524;SDS011;40431;52.198;9.902;2022-07-05T02:20:45;3.63;;;1.50;;
17524;SDS011;40431;52.198;9.902;2022-07-05T02:23:12;1.83;;;1.70;;
17524;SDS011;40431;52.198;9.902;2022-07-05T02:25:41;2.80;;;1.97;;
17524;SDS011;40431;52.198;9.902;2022-07-05T02:28:09;2.70;;;1.77;;
17524;SDS011;40431;52.198;9.902;2022-07-05T02:30:37;2.27;;;1.90;;
17524;SDS011;40431;52.198;9.902;2022-07-05T02:33:04;1.90;;;1.80;;
17524;SDS011;40431;52.198;9.902;2022-07-05T02:35:30;2.77;;;1.87;;
17524;SDS011;40431;52.198;9.902;2022-07-05T02:37:57;1.90;;;1.70;;
17524;SDS011;40431;52.198;9.902;2022-07-05T02:40:23;2.80;;;2.40;;
17524;SDS011;40431;52.198;9.902;2022-07-05T02:42:51;2.70;;;1.97;;
17524;SDS011;40431;52.198;9.902;2022-07-05T02:45:17;2.97;;;2.20;;
17524;SDS011;40431;52.198;9.902;2022-07-05T02:47:44;3.67;;;1.90;;
17524;SDS011;40431;52.198;9.902;2022-07-05T02:50:10;2.43;;;2.23;;
17524;SDS011;40431;52.198;9.902;2022-07-05T02:52:37;2.60;;;1.93;;
17524;SDS011;40431;52.198;9.902;2022-07-05T02:55:04;2.80;;;1.97;;
17524;SDS011;40431;52.198;9.902;2022-07-05T02:57:31;2.87;;;2.63;;
17524;SDS011;40431;52.198;9.902;2022-07-05T02:59:59;5.57;;;2.70;;
17524;SDS011;40431;52.198;9.902;2022-07-05T03:02:25;2.73;;;2.50;;
17524;SDS011;40431;52.198;9.902;2022-07-05T03:04:52;3.50;;;2.60;;
17524;SDS011;40431;52.198;9.902;2022-07-05T03:07:18;2.10;;;2.00;;
17524;SDS011;40431;52.198;9.902;2022-07-05T03:09:45;3.20;;;1.97;;
17524;SDS011;40431;52.198;9.902;2022-07-05T03:12:11;4.03;;;2.10;;
17524;SDS011;40431;52.198;9.902;2022-07-05T03:14:37;2.07;;;1.93;;
17524;SDS011;40431;52.198;9.902;2022-07-05T03:17:05;2.33;;;1.97;;
17524;SDS011;40431;52.198;9.902;2022-07-05T03:19:31;7.43;;;2.63;;
17524;SDS011;40431;52.198;9.902;2022-07-05T03:21:58;4.07;;;2.23;;
17524;SDS011;40431;52.198;9.902;2022-07-05T03:24:24;2.03;;;1.80;;
17524;SDS011;40431;52.198;9.902;2022-07-05T03:26:51;2.80;;;1.87;;
17524;SDS011;40431;52.198;9.902;2022-07-05T03:29:17;2.47;;;1.97;;
17524;SDS011;40431;52.198;9.902;2022-07-05T03:31:43;3.10;;;1.70;;
17524;SDS011;40431;52.198;9.902;2022-07-05T03:34:11;2.43;;;2.00;;
17524;SDS011;40431;52.198;9.902;2022-07-05T03:36:37;7.33;;;2.47;;
17524;SDS011;40431;52.198;9.902;2022-07-05T03:39:04;2.77;;;2.20;;
17524;SDS011;40431;52.198;9.902;2022-07-05T03:41:30;2.63;;;2.23;;
17524;SDS011;40431;52.198;9.902;2022-07-05T03:43:57;2.60;;;2.40;;
17524;SDS011;40431;52.198;9.902;2022-07-05T03:46:23;2.20;;;2.00;;
17524;SDS011;40431;52.198;9.902;2022-07-05T03:48:49;2.37;;;2.20;;
17524;SDS011;40431;52.198;9.902;2022-07-05T03:51:18;3.70;;;2.43;;
17524;SDS011;40431;52.198;9.902;2022-07-05T03:53:45;6.10;;;2.90;;
17524;SDS011;40431;52.198;9.902;2022-07-05T03:56:11;3.70;;;2.63;;
17524;SDS011;40431;52.198;9.902;2022-07-05T03:58:37;5.17;;;3.27;;
17524;SDS011;40431;52.198;9.902;2022-07-05T04:01:04;2.90;;;2.70;;
17524;SDS011;40431;52.198;9.902;2022-07-05T04:03:30;2.83;;;2.50;;
17524;SDS011;40431;52.198;9.902;2022-07-05T04:05:56;3.40;;;3.10;;
17524;SDS011;40431;52.198;9.902;2022-07-05T04:08:24;3.67;;;3.30;;
17524;SDS011;40431;52.198;9.902;2022-07-05T04:10:50;3.57;;;3.30;;
17524;SDS011;40431;52.198;9.902;2022-07-05T04:13:17;3.40;;;2.77;;
17524;SDS011;40431;52.198;9.902;2022-07-05T04:15:43;3.53;;;3.23;;
17524;SDS011;40431;52.198;9.902;2022-07-05T04:18:10;4.10;;;3.00;;
17524;SDS011;40431;52.198;9.902;2022-07-05T04:20:36;3.83;;;3.43;;
17524;SDS011;40431;52.198;9.902;2022-07-05T04:23:02;3.50;;;3.20;;
17524;SDS011;40431;52.198;9.902;2022-07-05T04:25:31;4.10;;;3.30;;
17524;SDS011;40431;52.198;9.902;2022-07-05T04:27:58;3.87;;;3.07;;
17524;SDS011;40431;52.198;9.902;2022-07-05T04:30:24;3.60;;;3.27;;
17524;SDS011;40431;52.198;9.902;2022-07-05T04:32:51;3.63;;;3.33;;
17524;SDS011;40431;52.198;9.902;2022-07-05T04:35:18;5.87;;;2.70;;
17524;SDS011;40431;52.198;9.902;2022-07-05T04:37:44;3.87;;;2.90;;
17524;SDS011;40431;52.198;9.902;2022-07-05T04:40:12;5.50;;;2.93;;
17524;SDS011;40431;52.198;9.902;2022-07-05T04:42:41;4.97;;;3.40;;
17524;SDS011;40431;52.198;9.902;2022-07-05T04:45:08;3.60;;;2.80;;
17524;SDS011;40431;52.198;9.902;2022-07-05T04:47:35;5.30;;;3.17;;
17524;SDS011;40431;52.198;9.902;2022-07-05T04:50:02;5.20;;;3.27;;
17524;SDS011;40431;52.198;9.902;2022-07-05T04:52:30;7.43;;;3.33;;
17524;SDS011;40431;52.198;9.902;2022-07-05T04:54:57;4.97;;;3.30;;
17524;SDS011;40431;52.198;9.902;2022-07-05T04:57:23;5.33;;;2.67;;
17524;SDS011;40431;52.198;9.902;2022-07-05T04:59:51;3.50;;;3.17;;
17524;SDS011;40431;52.198;9.902;2022-07-05T05:02:17;3.20;;;2.40;;
17524;SDS011;40431;52.198;9.902;2022-07-05T05:04:44;4.83;;;3.43;;
17524;SDS011;40431;52.198;9.902;2022-07-05T05:07:10;6.80;;;3.43;;
17524;SDS011;40431;52.198;9.902;2022-07-05T05:09:37;3.53;;;3.03;;
17524;SDS011;40431;52.198;9.902;2022-07-05T05:12:04;6.27;;;3.17;;
17524;SDS011;40431;52.198;9.902;2022-07-05T05:14:31;3.80;;;3.23;;
17524;SDS011;40431;52.198;9.902;2022-07-05T05:16:59;5.90;;;3.30;;
17524;SDS011;40431;52.198;9.902;2022-07-05T05:19:25;4.87;;;3.10;;
17524;SDS011;40431;52.198;9.902;2022-07-05T05:21:51;5.87;;;2.90;;
17524;SDS011;40431;52.198;9.902;2022-07-05T05:24:18;4.90;;;3.47;;
17524;SDS011;40431;52.198;9.902;2022-07-05T05:26:44;6.57;;;3.00;;
17524;SDS011;40431;52.198;9.902;2022-07-05T05:29:11;4.60;;;3.17;;
17524;SDS011;40431;52.198;9.902;2022-07-05T05:31:37;4.00;;;3.53;;
17524;SDS011;40431;52.198;9.902;2022-07-05T05:34:05;4.40;;;3.73;;
17524;SDS011;40431;52.198;9.902;2022-07-05T05:36:31;3.70;;;3.00;;
17524;SDS011;40431;52.198;9.902;2022-07-05T05:38:58;3.70;;;3.00;;
17524;SDS011;40431;52.198;9.902;2022-07-05T05:41:25;4.07;;;2.83;;
17524;SDS011;40431;52.198;9.902;2022-07-05T05:43:51;3.23;;;2.73;;
17524;SDS011;40431;52.198;9.902;2022-07-05T05:46:18;3.03;;;2.80;;
17524;SDS011;40431;52.198;9.902;2022-07-05T05:48:44;5.33;;;3.30;;
17524;SDS011;40431;52.198;9.902;2022-07-05T05:51:12;5.37;;;2.83;;
17524;SDS011;40431;52.198;9.902;2022-07-05T05:53:38;5.07;;;3.40;;
17524;SDS011;40431;52.198;9.902;2022-07-05T05:56:05;4.13;;;3.10;;
17524;SDS011;40431;52.198;9.902;2022-07-05T05:58:33;6.80;;;3.07;;
17524;SDS011;40431;52.198;9.902;2022-07-05T06:01:00;7.70;;;3.23;;
17524;SDS011;40431;52.198;9.902;2022-07-05T06:03:27;3.87;;;3.17;;
17524;SDS011;40431;52.198;9.902;2022-07-05T06:05:53;3.17;;;2.50;;
17524;SDS011;40431;52.198;9.902;2022-07-05T06:08:21;3.30;;;2.73;;
17524;SDS011;40431;52.198;9.902;2022-07-05T06:10:48;5.50;;;2.43;;
17524;SDS011;40431;52.198;9.902;2022-07-05T06:13:15;3.93;;;3.03;;
17524;SDS011;40431;52.198;9.902;2022-07-05T06:15:41;4.87;;;3.07;;
17524;SDS011;40431;52.198;9.902;2022-07-05T06:18:09;4.60;;;2.77;;
17524;SDS011;40431;52.198;9.902;2022-07-05T06:20:37;5.00;;;3.17;;
17524;SDS011;40431;52.198;9.902;2022-07-05T06:23:04;2.40;;;2.20;;
17524;SDS011;40431;52.198;9.902;2022-07-05T06:25:34;3.93;;;3.10;;
17524;SDS011;40431;52.198;9.902;2022-07-05T06:28:02;4.63;;;2.93;;
17524;SDS011;40431;52.198;9.902;2022-07-05T06:30:30;4.67;;;3.23;;
17524;SDS011;40431;52.198;9.902;2022-07-05T06:32:57;4.03;;;2.60;;
17524;SDS011;40431;52.198;9.902;2022-07-05T06:35:24;4.20;;;2.83;;
17524;SDS011;40431;52.198;9.902;2022-07-05T06:37:51;4.17;;;2.83;;
17524;SDS011;40431;52.198;9.902;2022-07-05T06:40:19;4.90;;;2.80;;
17524;SDS011;40431;52.198;9.902;2022-07-05T06:42:49;8.30;;;2.80;;
17524;SDS011;40431;52.198;9.902;2022-07-05T06:45:15;4.80;;;2.60;;
17524;SDS011;40431;52.198;9.902;2022-07-05T06:47:42;3.50;;;2.63;;
17524;SDS011;40431;52.198;9.902;2022-07-05T06:50:08;3.07;;;2.50;;
17524;SDS011;40431;52.198;9.902;2022-07-05T06:52:35;3.13;;;2.00;;
17524;SDS011;40431;52.198;9.902;2022-07-05T06:55:03;6.47;;;2.37;;
17524;SDS011;40431;52.198;9.902;2022-07-05T06:57:31;4.93;;;2.20;;
17524;SDS011;40431;52.198;9.902;2022-07-05T07:00:00;4.00;;;2.70;;
17524;SDS011;40431;52.198;9.902;2022-07-05T07:02:29;7.47;;;2.20;;
17524;SDS011;40431;52.198;9.902;2022-07-05T07:04:57;4.33;;;2.40;;
17524;SDS011;40431;52.198;9.902;2022-07-05T07:07:25;4.97;;;2.20;;
17524;SDS011;40431;52.198;9.902;2022-07-05T07:10:10;3.20;;;1.70;;
17524;SDS011;40431;52.198;9.902;2022-07-05T07:12:37;6.53;;;2.23;;
17524;SDS011;40431;52.198;9.902;2022-07-05T07:15:07;6.57;;;2.43;;
17524;SDS011;40431;52.198;9.902;2022-07-05T07:17:36;2.30;;;1.47;;
17524;SDS011;40431;52.198;9.902;2022-07-05T07:20:04;4.90;;;1.63;;
17524;SDS011;40431;52.198;9.902;2022-07-05T07:22:32;2.47;;;1.47;;
17524;SDS011;40431;52.198;9.902;2022-07-05T07:25:00;3.60;;;1.43;;
17524;SDS011;40431;52.198;9.902;2022-07-05T07:27:28;4.50;;;1.60;;
17524;SDS011;40431;52.198;9.902;2022-07-05T07:29:56;2.10;;;1.20;;
17524;SDS011;40431;52.198;9.902;2022-07-05T07:32:25;2.20;;;1.30;;
17524;SDS011;40431;52.198;9.902;2022-07-05T07:34:55;1.87;;;1.27;;
17524;SDS011;40431;52.198;9.902;2022-07-05T07:37:23;6.27;;;1.60;;
17524;SDS011;40431;52.198;9.902;2022-07-05T07:39:51;2.20;;;0.93;;
17524;SDS011;40431;52.198;9.902;2022-07-05T07:42:19;2.90;;;1.40;;
17524;SDS011;40431;52.198;9.902;2022-07-05T07:44:57;7.50;;;1.77;;
17524;SDS011;40431;52.198;9.902;2022-07-05T07:47:30;2.30;;;1.20;;
17524;SDS011;40431;52.198;9.902;2022-07-05T07:49:58;1.80;;;1.30;;
17524;SDS011;40431;52.198;9.902;2022-07-05T07:52:26;3.83;;;1.13;;
17524;SDS011;40431;52.198;9.902;2022-07-05T07:54:55;5.13;;;1.47;;
17524;SDS011;40431;52.198;9.902;2022-07-05T07:57:27;3.40;;;1.30;;
17524;SDS011;40431;52.198;9.902;2022-07-05T07:59:55;3.73;;;1.00;;
17524;SDS011;40431;52.198;9.902;2022-07-05T08:02:23;1.60;;;0.97;;
17524;SDS011;40431;52.198;9.902;2022-07-05T08:04:51;1.27;;;1.00;;
17524;SDS011;40431;52.198;9.902;2022-07-05T08:07:18;3.33;;;1.10;;
17524;SDS011;40431;52.198;9.902;2022-07-05T08:09:45;3.50;;;1.07;;
17524;SDS011;40431;52.198;9.902;2022-07-05T08:12:12;1.60;;;1.03;;
17524;SDS011;40431;52.198;9.902;2022-07-05T08:14:39;1.40;;;1.00;;
17524;SDS011;40431;52.198;9.902;2022-07-05T08:17:05;0.93;;;0.83;;
17524;SDS011;40431;52.198;9.902;2022-07-05T08:19:33;2.80;;;1.10;;
17524;SDS011;40431;52.198;9.902;2022-07-05T08:22:19;1.20;;;1.10;;
17524;SDS011;40431;52.198;9.902;2022-07-05T08:24:46;1.37;;;1.00;;
17524;SDS011;40431;52.198;9.902;2022-07-05T08:27:12;1.67;;;1.13;;
17524;SDS011;40431;52.198;9.902;2022-07-05T08:29:38;1.87;;;0.90;;
17524;SDS011;40431;52.198;9.902;2022-07-05T08:32:05;1.27;;;1.07;;
17524;SDS011;40431;52.198;9.902;2022-07-05T08:34:32;1.87;;;1.20;;
17524;SDS011;40431;52.198;9.902;2022-07-05T08:36:59;1.90;;;1.00;;
17524;SDS011;40431;52.198;9.902;2022-07-05T08:39:27;1.37;;;0.90;;
17524;SDS011;40431;52.198;9.902;2022-07-05T08:41:54;2.40;;;1.10;;
17524;SDS011;40431;52.198;9.902;2022-07-05T08:44:23;3.20;;;1.10;;
17524;SDS011;40431;52.198;9.902;2022-07-05T08:46:50;2.87;;;0.90;;
17524;SDS011;40431;52.198;9.902;2022-07-05T08:49:20;1.53;;;1.20;;
17524;SDS011;40431;52.198;9.902;2022-07-05T08:51:48;4.03;;;1.10;;
17524;SDS011;40431;52.198;9.902;2022-07-05T08:54:17;3.27;;;1.30;;
17524;SDS011;40431;52.198;9.902;2022-07-05T08:56:47;1.10;;;1.00;;
17524;SDS011;40431;52.198;9.902;2022-07-05T08:59:16;1.77;;;1.00;;
17524;SDS011;40431;52.198;9.902;2022-07-05T09:01:45;1.43;;;1.10;;
17524;SDS011;40431;52.198;9.902;2022-07-05T09:04:13;2.17;;;1.20;;
17524;SDS011;40431;52.198;9.902;2022-07-05T09:06:45;1.43;;;1.20;;
17524;SDS011;40431;52.198;9.902;2022-07-05T09:09:16;1.30;;;0.90;;
17524;SDS011;40431;52.198;9.902;2022-07-05T09:11:46;3.77;;;1.20;;
17524;SDS011;40431;52.198;9.902;2022-07-05T09:14:18;1.30;;;1.17;;
17524;SDS011;40431;52.198;9.902;2022-07-05T09:16:48;1.63;;;1.00;;
17524;SDS011;40431;52.198;9.902;2022-07-05T09:19:17;1.17;;;0.97;;
17524;SDS011;40431;52.198;9.902;2022-07-05T09:21:46;1.10;;;0.73;;
17524;SDS011;40431;52.198;9.902;2022-07-05T09:24:14;3.47;;;1.10;;
17524;SDS011;40431;52.198;9.902;2022-07-05T09:26:47;1.83;;;0.90;;
17524;SDS011;40431;52.198;9.902;2022-07-05T09:29:16;2.57;;;1.00;;
17524;SDS011;40431;52.198;9.902;2022-07-05T09:31:46;2.03;;;0.90;;
17524;SDS011;40431;52.198;9.902;2022-07-05T09:34:18;1.17;;;1.07;;
17524;SDS011;40431;52.198;9.902;2022-07-05T09:36:48;1.00;;;0.90;;
17524;SDS011;40431;52.198;9.902;2022-07-05T09:42:12;1.37;;;0.90;;
17524;SDS011;40431;52.198;9.902;2022-07-05T09:44:46;0.90;;;0.80;;
17524;SDS011;40431;52.198;9.902;2022-07-05T09:47:20;3.17;;;1.10;;
17524;SDS011;40431;52.198;9.902;2022-07-05T09:49:50;1.90;;;1.00;;
17524;SDS011;40431;52.198;9.902;2022-07-05T09:52:28;0.90;;;0.90;;
17524;SDS011;40431;52.198;9.902;2022-07-05T09:55:01;1.87;;;0.80;;
17524;SDS011;40431;52.198;9.902;2022-07-05T09:57:33;1.10;;;0.90;;
17524;SDS011;40431;52.198;9.902;2022-07-05T10:00:03;2.43;;;1.00;;
17524;SDS011;40431;52.198;9.902;2022-07-05T10:02:39;1.20;;;1.00;;
17524;SDS011;40431;52.198;9.902;2022-07-05T10:05:09;9.33;;;2.47;;
17524;SDS011;40431;52.198;9.902;2022-07-05T10:07:39;2.30;;;0.90;;
17524;SDS011;40431;52.198;9.902;2022-07-05T10:10:09;1.10;;;1.00;;
17524;SDS011;40431;52.198;9.902;2022-07-05T10:12:41;2.57;;;1.00;;
17524;SDS011;40431;52.198;9.902;2022-07-05T10:15:14;1.10;;;0.80;;
17524;SDS011;40431;52.198;9.902;2022-07-05T10:17:45;1.47;;;0.87;;
17524;SDS011;40431;52.198;9.902;2022-07-05T10:20:19;1.20;;;1.07;;
17524;SDS011;40431;52.198;9.902;2022-07-05T10:23:04;2.60;;;1.07;;
17524;SDS011;40431;52.198;9.902;2022-07-05T10:25:44;0.90;;;0.73;;
17524;SDS011;40431;52.198;9.902;2022-07-05T10:28:15;1.70;;;0.70;;
17524;SDS011;40431;52.198;9.902;2022-07-05T10:30:43;1.20;;;0.80;;
17524;SDS011;40431;52.198;9.902;2022-07-05T10:33:12;1.23;;;0.80;;
17524;SDS011;40431;52.198;9.902;2022-07-05T10:35:42;1.03;;;0.90;;
17524;SDS011;40431;52.198;9.902;2022-07-05T10:38:10;1.70;;;1.03;;
17524;SDS011;40431;52.198;9.902;2022-07-05T10:40:42;1.87;;;0.90;;
17524;SDS011;40431;52.198;9.902;2022-07-05T10:43:15;1.13;;;0.80;;
17524;SDS011;40431;52.198;9.902;2022-07-05T10:45:46;2.53;;;1.00;;
17524;SDS011;40431;52.198;9.902;2022-07-05T10:48:15;1.77;;;0.90;;
17524;SDS011;40431;52.198;9.902;2022-07-05T10:50:49;1.63;;;1.20;;
17524;SDS011;40431;52.198;9.902;2022-07-05T10:53:18;1.50;;;0.93;;
17524;SDS011;40431;52.198;9.902;2022-07-05T10:55:48;1.63;;;0.70;;
17524;SDS011;40431;52.198;9.902;2022-07-05T10:58:23;5.67;;;1.60;;
17524;SDS011;40431;52.198;9.902;2022-07-05T11:07:01;0.80;;;0.80;;
17524;SDS011;40431;52.198;9.902;2022-07-05T11:09:30;1.63;;;0.80;;
17524;SDS011;40431;52.198;9.902;2022-07-05T11:12:05;1.40;;;1.00;;
17524;SDS011;40431;52.198;9.902;2022-07-05T11:14:46;1.00;;;0.70;;
17524;SDS011;40431;52.198;9.902;2022-07-05T11:20:08;4.80;;;1.00;;
17524;SDS011;40431;52.198;9.902;2022-07-05T11:22:39;3.27;;;0.90;;
17524;SDS011;40431;52.198;9.902;2022-07-05T11:25:09;1.33;;;0.70;;
17524;SDS011;40431;52.198;9.902;2022-07-05T11:30:26;1.30;;;1.10;;
17524;SDS011;40431;52.198;9.902;2022-07-05T11:32:53;0.90;;;0.83;;
17524;SDS011;40431;52.198;9.902;2022-07-05T11:35:19;1.00;;;0.90;;
17524;SDS011;40431;52.198;9.902;2022-07-05T11:37:59;1.20;;;0.90;;
17524;SDS011;40431;52.198;9.902;2022-07-05T11:40:29;6.60;;;1.00;;
17524;SDS011;40431;52.198;9.902;2022-07-05T11:42:57;2.03;;;0.80;;
17524;SDS011;40431;52.198;9.902;2022-07-05T11:45:23;1.03;;;0.93;;
17524;SDS011;40431;52.198;9.902;2022-07-05T11:47:52;1.10;;;0.60;;
17524;SDS011;40431;52.198;9.902;2022-07-05T11:50:24;2.30;;;0.80;;
17524;SDS011;40431;52.198;9.902;2022-07-05T11:52:52;1.97;;;0.70;;
17524;SDS011;40431;52.198;9.902;2022-07-05T11:55:18;1.00;;;0.90;;
17524;SDS011;40431;52.198;9.902;2022-07-05T11:57:47;0.87;;;0.80;;
17524;SDS011;40431;52.198;9.902;2022-07-05T12:00:25;1.73;;;0.73;;
17524;SDS011;40431;52.198;9.902;2022-07-05T12:02:56;1.37;;;0.60;;
17524;SDS011;40431;52.198;9.902;2022-07-05T12:05:23;2.43;;;0.80;;
17524;SDS011;40431;52.198;9.902;2022-07-05T12:07:55;2.70;;;0.60;;
17524;SDS011;40431;52.198;9.902;2022-07-05T12:10:21;1.80;;;0.63;;
17524;SDS011;40431;52.198;9.902;2022-07-05T12:13:05;0.63;;;0.63;;
17524;SDS011;40431;52.198;9.902;2022-07-05T12:15:33;1.33;;;0.60;;
17524;SDS011;40431;52.198;9.902;2022-07-05T12:18:02;0.93;;;0.70;;
17524;SDS011;40431;52.198;9.902;2022-07-05T12:20:30;1.53;;;0.80;;
17524;SDS011;40431;52.198;9.902;2022-07-05T12:22:58;3.07;;;0.70;;
17524;SDS011;40431;52.198;9.902;2022-07-05T12:25:25;0.87;;;0.60;;
17524;SDS011;40431;52.198;9.902;2022-07-05T12:27:53;1.40;;;0.80;;
17524;SDS011;40431;52.198;9.902;2022-07-05T12:30:21;0.83;;;0.60;;
17524;SDS011;40431;52.198;9.902;2022-07-05T12:32:58;0.77;;;0.60;;
17524;SDS011;40431;52.198;9.902;2022-07-05T12:35:28;3.50;;;0.80;;
17524;SDS011;40431;52.198;9.902;2022-07-05T12:37:56;1.33;;;0.97;;
17524;SDS011;40431;52.198;9.902;2022-07-05T12:40:23;0.87;;;0.60;;
17524;SDS011;40431;52.198;9.902;2022-07-05T12:42:59;0.77;;;0.70;;
17524;SDS011;40431;52.198;9.902;2022-07-05T12:45:30;2.13;;;0.70;;
17524;SDS011;40431;52.198;9.902;2022-07-05T12:47:57;1.90;;;0.87;;
17524;SDS011;40431;52.198;9.902;2022-07-05T12:50:25;0.83;;;0.60;;
17524;SDS011;40431;52.198;9.902;2022-07-05T12:52:59;1.00;;;0.60;;
17524;SDS011;40431;52.198;9.902;2022-07-05T12:55:47;0.90;;;0.60;;
17524;SDS011;40431;52.198;9.902;2022-07-05T12:58:32;1.37;;;0.60;;
17524;SDS011;40431;52.198;9.902;2022-07-05T13:00:59;2.40;;;0.63;;
17524;SDS011;40431;52.198;9.902;2022-07-05T13:03:27;0.80;;;0.70;;
17524;SDS011;40431;52.198;9.902;2022-07-05T13:06:03;1.63;;;0.60;;
17524;SDS011;40431;52.198;9.902;2022-07-05T13:08:34;1.80;;;0.80;;
17524;SDS011;40431;52.198;9.902;2022-07-05T13:11:02;2.53;;;0.70;;
17524;SDS011;40431;52.198;9.902;2022-07-05T13:13:32;1.87;;;0.63;;
17524;SDS011;40431;52.198;9.902;2022-07-05T13:16:00;0.70;;;0.70;;
17524;SDS011;40431;52.198;9.902;2022-07-05T13:18:27;1.70;;;0.70;;
17524;SDS011;40431;52.198;9.902;2022-07-05T13:20:57;1.23;;;0.70;;
17524;SDS011;40431;52.198;9.902;2022-07-05T13:23:24;1.77;;;0.60;;
17524;SDS011;40431;52.198;9.902;2022-07-05T13:25:53;1.03;;;0.50;;
17524;SDS011;40431;52.198;9.902;2022-07-05T13:28:23;0.70;;;0.50;;
17524;SDS011;40431;52.198;9.902;2022-07-05T13:30:51;0.80;;;0.50;;
17524;SDS011;40431;52.198;9.902;2022-07-05T13:33:19;0.87;;;0.60;;
17524;SDS011;40431;52.198;9.902;2022-07-05T13:35:46;0.70;;;0.50;;
17524;SDS011;40431;52.198;9.902;2022-07-05T13:38:14;6.07;;;0.80;;
17524;SDS011;40431;52.198;9.902;2022-07-05T13:40:42;1.73;;;0.77;;
17524;SDS011;40431;52.198;9.902;2022-07-05T13:43:09;0.63;;;0.60;;
17524;SDS011;40431;52.198;9.902;2022-07-05T13:45:36;1.93;;;0.70;;
17524;SDS011;40431;52.198;9.902;2022-07-05T13:48:04;1.73;;;0.90;;
17524;SDS011;40431;52.198;9.902;2022-07-05T13:50:32;1.30;;;0.70;;
17524;SDS011;40431;52.198;9.902;2022-07-05T13:53:03;0.97;;;0.57;;
17524;SDS011;40431;52.198;9.902;2022-07-05T13:55:31;0.73;;;0.60;;
17524;SDS011;40431;52.198;9.902;2022-07-05T13:57:59;1.23;;;0.50;;
17524;SDS011;40431;52.198;9.902;2022-07-05T14:00:28;0.60;;;0.60;;
17524;SDS011;40431;52.198;9.902;2022-07-05T14:02:56;0.60;;;0.60;;
17524;SDS011;40431;52.198;9.902;2022-07-05T14:05:24;1.00;;;0.80;;
17524;SDS011;40431;52.198;9.902;2022-07-05T14:07:52;2.60;;;0.60;;
17524;SDS011;40431;52.198;9.902;2022-07-05T14:10:19;1.10;;;0.60;;
17524;SDS011;40431;52.198;9.902;2022-07-05T14:12:47;0.80;;;0.80;;
17524;SDS011;40431;52.198;9.902;2022-07-05T14:15:15;1.83;;;0.70;;
17524;SDS011;40431;52.198;9.902;2022-07-05T14:17:44;0.70;;;0.70;;
17524;SDS011;40431;52.198;9.902;2022-07-05T14:20:12;2.47;;;0.63;;
17524;SDS011;40431;52.198;9.902;2022-07-05T14:22:40;0.93;;;0.70;;
17524;SDS011;40431;52.198;9.902;2022-07-05T14:25:08;1.00;;;0.73;;
17524;SDS011;40431;52.198;9.902;2022-07-05T14:27:37;2.57;;;0.80;;
17524;SDS011;40431;52.198;9.902;2022-07-05T14:30:05;1.70;;;0.70;;
17524;SDS011;40431;52.198;9.902;2022-07-05T14:32:35;2.80;;;0.73;;
17524;SDS011;40431;52.198;9.902;2022-07-05T14:35:05;1.17;;;0.90;;
17524;SDS011;40431;52.198;9.902;2022-07-05T14:37:33;1.60;;;0.60;;
17524;SDS011;40431;52.198;9.902;2022-07-05T14:40:01;0.90;;;0.50;;
17524;SDS011;40431;52.198;9.902;2022-07-05T14:42:29;1.33;;;0.80;;
17524;SDS011;40431;52.198;9.902;2022-07-05T14:44:57;1.97;;;0.70;;
17524;SDS011;40431;52.198;9.902;2022-07-05T14:47:25;3.33;;;0.80;;
17524;SDS011;40431;52.198;9.902;2022-07-05T14:49:53;1.70;;;0.60;;
17524;SDS011;40431;52.198;9.902;2022-07-05T14:52:22;1.20;;;0.70;;
17524;SDS011;40431;52.198;9.902;2022-07-05T14:54:50;1.30;;;0.67;;
17524;SDS011;40431;52.198;9.902;2022-07-05T14:57:27;1.80;;;1.00;;
17524;SDS011;40431;52.198;9.902;2022-07-05T14:59:56;0.70;;;0.70;;
17524;SDS011;40431;52.198;9.902;2022-07-05T15:02:23;3.30;;;0.80;;
17524;SDS011;40431;52.198;9.902;2022-07-05T15:04:49;0.80;;;0.80;;
17524;SDS011;40431;52.198;9.902;2022-07-05T15:07:16;0.50;;;0.50;;
17524;SDS011;40431;52.198;9.902;2022-07-05T15:09:44;2.80;;;0.60;;
17524;SDS011;40431;52.198;9.902;2022-07-05T15:12:11;0.83;;;0.73;;